sensor_id;sensor_type;location;lat;lon;timestamp;pressure;altitude;pressure_sealevel;temperature;humidity
79400;BME280;68856;45.586;10.264;2023-04-03T00:01:46;99153.63;;;7.92;75.72
79400;BME280;68856;45.586;10.264;2023-04-03T00:04:12;99132.31;;;7.95;75.97
79400;BME280;68856;45.586;10.264;2023-04-03T00:06:39;99131.72;;;7.65;76.64
79400;BME280;68856;45.586;10.264;2023-04-03T00:09:05;99141.25;;;7.68;77.26
79400;BME280;68856;45.586;10.264;2023-04-03T00:11:31;99135.84;;;7.68;76.74
79400;BME280;68856;45.586;10.264;2023-04-03T00:13:57;99141.78;;;7.81;76.96
79400;BME280;68856;45.586;10.264;2023-04-03T00:16:23;99145.25;;;7.65;76.36
79400;BME280;68856;45.586;10.264;2023-04-03T00:18:50;99131.25;;;7.68;76.04
79400;BME280;68856;45.586;10.264;2023-04-03T00:21:16;99136.47;;;7.58;75.82
79400;BME280;68856;45.586;10.264;2023-04-03T00:23:42;99138.81;;;7.54;76.86
79400;BME280;68856;45.586;10.264;2023-04-03T00:26:08;99129.91;;;7.42;77.60
79400;BME280;68856;45.586;10.264;2023-04-03T00:28:35;99125.75;;;7.63;76.13
79400;BME280;68856;45.586;10.264;2023-04-03T00:31:01;99131.22;;;7.28;76.79
79400;BME280;68856;45.586;10.264;2023-04-03T00:33:27;99126.63;;;7.29;77.02
79400;BME280;68856;45.586;10.264;2023-04-03T00:35:54;99124.16;;;7.39;77.13
79400;BME280;68856;45.586;10.264;2023-04-03T00:38:20;99125.34;;;7.31;77.39
79400;BME280;68856;45.586;10.264;2023-04-03T00:40:48;99128.50;;;7.40;76.43
79400;BME280;68856;45.586;10.264;2023-04-03T00:43:18;99123.16;;;6.94;78.65
79400;BME280;68856;45.586;10.264;2023-04-03T00:45:47;99114.00;;;7.06;77.56
79400;BME280;68856;45.586;10.264;2023-04-03T00:48:32;99121.16;;;6.89;80.30
79400;BME280;68856;45.586;10.264;2023-04-03T00:51:01;99123.00;;;7.35;78.09
79400;BME280;68856;45.586;10.264;2023-04-03T00:53:42;99116.22;;;6.98;77.69
79400;BME280;68856;45.586;10.264;2023-04-03T00:56:12;99114.00;;;7.06;77.37
79400;BME280;68856;45.586;10.264;2023-04-03T00:58:44;99117.19;;;6.92;78.17
79400;BME280;68856;45.586;10.264;2023-04-03T01:01:20;99115.41;;;7.09;78.12
79400;BME280;68856;45.586;10.264;2023-04-03T01:03:48;99117.72;;;7.05;76.92
79400;BME280;68856;45.586;10.264;2023-04-03T01:06:17;99116.56;;;7.01;78.15
79400;BME280;68856;45.586;10.264;2023-04-03T01:08:49;99112.56;;;6.92;78.59
79400;BME280;68856;45.586;10.264;2023-04-03T01:11:16;99108.69;;;7.00;77.80
79400;BME280;68856;45.586;10.264;2023-04-03T01:13:43;99110.84;;;6.86;78.43
79400;BME280;68856;45.586;10.264;2023-04-03T01:16:09;99108.69;;;7.00;77.64
79400;BME280;68856;45.586;10.264;2023-04-03T01:18:37;99095.31;;;6.93;77.62
79400;BME280;68856;45.586;10.264;2023-04-03T01:24:06;99100.97;;;6.92;77.68
79400;BME280;68856;45.586;10.264;2023-04-03T01:26:36;99093.00;;;6.73;76.54
79400;BME280;68856;45.586;10.264;2023-04-03T01:29:03;99096.16;;;6.47;78.30
79400;BME280;68856;45.586;10.264;2023-04-03T01:34:03;99093.56;;;6.64;79.06
79400;BME280;68856;45.586;10.264;2023-04-03T01:36:31;99092.97;;;6.62;78.08
79400;BME280;68856;45.586;10.264;2023-04-03T01:38:59;99089.44;;;6.61;77.79
79400;BME280;68856;45.586;10.264;2023-04-03T01:41:27;99085.00;;;6.67;77.90
79400;BME280;68856;45.586;10.264;2023-04-03T01:43:53;99072.44;;;6.49;77.58
79400;BME280;68856;45.586;10.264;2023-04-03T01:46:20;99085.34;;;6.82;77.85
79400;BME280;68856;45.586;10.264;2023-04-03T01:48:46;99085.94;;;6.84;77.15
79400;BME280;68856;45.586;10.264;2023-04-03T01:51:13;99086.88;;;6.78;77.30
79400;BME280;68856;45.586;10.264;2023-04-03T01:53:39;99083.38;;;6.77;76.56
79400;BME280;68856;45.586;10.264;2023-04-03T01:56:06;99086.63;;;6.56;76.93
79400;BME280;68856;45.586;10.264;2023-04-03T01:58:32;99085.47;;;6.64;78.10
79400;BME280;68856;45.586;10.264;2023-04-03T02:00:58;99086.03;;;6.43;80.43
79400;BME280;68856;45.586;10.264;2023-04-03T02:03:25;99079.09;;;6.35;79.75
79400;BME280;68856;45.586;10.264;2023-04-03T02:05:51;99075.84;;;6.56;78.56
79400;BME280;68856;45.586;10.264;2023-04-03T02:08:18;99079.38;;;6.57;78.11
79400;BME280;68856;45.586;10.264;2023-04-03T02:10:47;99088.25;;;6.46;78.39
79400;BME280;68856;45.586;10.264;2023-04-03T02:13:13;99083.09;;;6.56;78.48
79400;BME280;68856;45.586;10.264;2023-04-03T02:15:39;99070.91;;;6.53;78.41
79400;BME280;68856;45.586;10.264;2023-04-03T02:18:06;99072.22;;;6.62;77.17
79400;BME280;68856;45.586;10.264;2023-04-03T02:20:33;99074.66;;;6.64;76.83
79400;BME280;68856;45.586;10.264;2023-04-03T02:22:59;99071.28;;;6.68;77.77
79400;BME280;68856;45.586;10.264;2023-04-03T02:25:26;99064.22;;;6.56;78.72
79400;BME280;68856;45.586;10.264;2023-04-03T02:27:52;99071.53;;;6.55;76.88
79400;BME280;68856;45.586;10.264;2023-04-03T02:30:19;99069.97;;;6.59;77.08
79400;BME280;68856;45.586;10.264;2023-04-03T02:32:45;99064.56;;;6.24;78.15
79400;BME280;68856;45.586;10.264;2023-04-03T02:35:12;99059.88;;;6.32;78.29
79400;BME280;68856;45.586;10.264;2023-04-03T02:37:38;99063.53;;;6.37;77.62
79400;BME280;68856;45.586;10.264;2023-04-03T02:40:06;99066.22;;;6.49;76.94
79400;BME280;68856;45.586;10.264;2023-04-03T02:42:33;99066.69;;;6.34;76.45
79400;BME280;68856;45.586;10.264;2023-04-03T02:44:59;99064.00;;;6.34;77.19
79400;BME280;68856;45.586;10.264;2023-04-03T02:47:27;99064.81;;;6.35;77.63
79400;BME280;68856;45.586;10.264;2023-04-03T02:49:53;99061.72;;;6.19;77.14
79400;BME280;68856;45.586;10.264;2023-04-03T02:52:20;99064.28;;;6.14;77.01
79400;BME280;68856;45.586;10.264;2023-04-03T02:54:47;99075.56;;;6.11;77.41
79400;BME280;68856;45.586;10.264;2023-04-03T02:57:13;99079.16;;;6.05;77.93
79400;BME280;68856;45.586;10.264;2023-04-03T02:59:39;99065.63;;;6.35;77.12
79400;BME280;68856;45.586;10.264;2023-04-03T03:02:10;99070.78;;;6.37;77.74
79400;BME280;68856;45.586;10.264;2023-04-03T03:04:37;99066.22;;;6.37;77.42
79400;BME280;68856;45.586;10.264;2023-04-03T03:07:03;99064.69;;;6.30;77.73
79400;BME280;68856;45.586;10.264;2023-04-03T03:09:30;99071.03;;;6.47;77.14
79400;BME280;68856;45.586;10.264;2023-04-03T03:11:57;99069.72;;;6.38;77.77
79400;BME280;68856;45.586;10.264;2023-04-03T03:14:24;99066.09;;;6.32;77.08
79400;BME280;68856;45.586;10.264;2023-04-03T03:16:50;99065.84;;;6.34;77.63
79400;BME280;68856;45.586;10.264;2023-04-03T03:19:16;99062.41;;;6.15;77.83
79400;BME280;68856;45.586;10.264;2023-04-03T03:21:43;99070.38;;;5.98;78.52
79400;BME280;68856;45.586;10.264;2023-04-03T03:24:09;99071.66;;;6.07;77.65
79400;BME280;68856;45.586;10.264;2023-04-03T03:26:36;99064.28;;;6.14;77.77
79400;BME280;68856;45.586;10.264;2023-04-03T03:29:02;99058.53;;;5.99;77.10
79400;BME280;68856;45.586;10.264;2023-04-03T03:31:29;99065.22;;;5.79;79.68
79400;BME280;68856;45.586;10.264;2023-04-03T03:33:55;99060.66;;;6.09;78.03
79400;BME280;68856;45.586;10.264;2023-04-03T03:36:21;99057.41;;;6.18;77.21
79400;BME280;68856;45.586;10.264;2023-04-03T03:38:47;99060.91;;;6.19;77.34
79400;BME280;68856;45.586;10.264;2023-04-03T03:41:14;99056.19;;;6.14;78.04
79400;BME280;68856;45.586;10.264;2023-04-03T03:43:40;99049.75;;;6.15;76.48
79400;BME280;68856;45.586;10.264;2023-04-03T03:46:07;99052.78;;;6.07;76.78
79400;BME280;68856;45.586;10.264;2023-04-03T03:48:33;99056.06;;;6.09;76.23
79400;BME280;68856;45.586;10.264;2023-04-03T03:50:59;99056.16;;;5.91;76.64
79400;BME280;68856;45.586;10.264;2023-04-03T03:53:26;99064.03;;;6.04;76.79
79400;BME280;68856;45.586;10.264;2023-04-03T03:55:52;99065.69;;;6.05;76.01
79400;BME280;68856;45.586;10.264;2023-04-03T03:58:18;99067.47;;;6.23;76.47
79400;BME280;68856;45.586;10.264;2023-04-03T04:00:45;99071.84;;;6.24;76.79
79400;BME280;68856;45.586;10.264;2023-04-03T04:03:11;99072.38;;;6.14;75.94
79400;BME280;68856;45.586;10.264;2023-04-03T04:05:37;99077.97;;;6.01;76.59
79400;BME280;68856;45.586;10.264;2023-04-03T04:08:04;99077.25;;;5.94;76.50
79400;BME280;68856;45.586;10.264;2023-04-03T04:10:30;99082.25;;;6.09;76.71
79400;BME280;68856;45.586;10.264;2023-04-03T04:12:56;99086.34;;;6.11;77.07
79400;BME280;68856;45.586;10.264;2023-04-03T04:15:22;99086.06;;;5.72;76.72
79400;BME280;68856;45.586;10.264;2023-04-03T04:17:49;99080.91;;;5.88;76.77
79400;BME280;68856;45.586;10.264;2023-04-03T04:20:16;99079.75;;;5.78;77.65
79400;BME280;68856;45.586;10.264;2023-04-03T04:22:42;99087.56;;;5.86;77.23
79400;BME280;68856;45.586;10.264;2023-04-03T04:25:09;99084.38;;;5.59;77.60
79400;BME280;68856;45.586;10.264;2023-04-03T04:27:35;99078.09;;;5.65;77.68
79400;BME280;68856;45.586;10.264;2023-04-03T04:30:03;99079.97;;;5.46;78.31
79400;BME280;68856;45.586;10.264;2023-04-03T04:32:30;99084.41;;;5.71;79.13
79400;BME280;68856;45.586;10.264;2023-04-03T04:34:56;99083.41;;;5.53;77.99
79400;BME280;68856;45.586;10.264;2023-04-03T04:37:22;99079.28;;;5.51;78.81
79400;BME280;68856;45.586;10.264;2023-04-03T04:39:49;99080.56;;;5.48;78.51
79400;BME280;68856;45.586;10.264;2023-04-03T04:42:15;99091.59;;;5.77;78.22
79400;BME280;68856;45.586;10.264;2023-04-03T04:44:42;99078.81;;;5.72;78.84
79400;BME280;68856;45.586;10.264;2023-04-03T04:47:09;99078.66;;;5.67;77.64
79400;BME280;68856;45.586;10.264;2023-04-03T04:49:35;99077.84;;;5.66;77.33
79400;BME280;68856;45.586;10.264;2023-04-03T04:52:01;99081.94;;;5.69;77.77
79400;BME280;68856;45.586;10.264;2023-04-03T04:54:28;99086.69;;;5.55;78.08
79400;BME280;68856;45.586;10.264;2023-04-03T04:56:54;99084.00;;;5.37;79.50
79400;BME280;68856;45.586;10.264;2023-04-03T04:59:20;99093.75;;;5.38;79.75
79400;BME280;68856;45.586;10.264;2023-04-03T05:01:47;99089.78;;;5.71;78.31
79400;BME280;68856;45.586;10.264;2023-04-03T05:04:13;99083.59;;;5.70;76.83
79400;BME280;68856;45.586;10.264;2023-04-03T05:06:40;99093.19;;;5.66;77.37
79400;BME280;68856;45.586;10.264;2023-04-03T05:09:06;99092.94;;;5.20;79.96
79400;BME280;68856;45.586;10.264;2023-04-03T05:11:33;99097.34;;;5.32;80.17
79400;BME280;68856;45.586;10.264;2023-04-03T05:13:59;99094.78;;;5.37;79.15
79400;BME280;68856;45.586;10.264;2023-04-03T05:16:25;99095.41;;;5.39;78.31
79400;BME280;68856;45.586;10.264;2023-04-03T05:18:52;99103.28;;;5.52;78.35
79400;BME280;68856;45.586;10.264;2023-04-03T05:21:18;99100.84;;;5.51;79.13
79400;BME280;68856;45.586;10.264;2023-04-03T05:23:44;99098.63;;;5.78;77.70
79400;BME280;68856;45.586;10.264;2023-04-03T05:26:10;99093.63;;;5.63;76.94
79400;BME280;68856;45.586;10.264;2023-04-03T05:28:37;99101.84;;;5.38;78.54
79400;BME280;68856;45.586;10.264;2023-04-03T05:31:03;99097.81;;;5.77;77.71
79400;BME280;68856;45.586;10.264;2023-04-03T05:33:29;99109.47;;;5.89;77.02
79400;BME280;68856;45.586;10.264;2023-04-03T05:35:55;99110.06;;;5.73;76.99
79400;BME280;68856;45.586;10.264;2023-04-03T05:38:22;99106.94;;;5.76;76.51
79400;BME280;68856;45.586;10.264;2023-04-03T05:40:48;99113.84;;;6.02;76.04
79400;BME280;68856;45.586;10.264;2023-04-03T05:43:14;99108.06;;;5.87;76.50
79400;BME280;68856;45.586;10.264;2023-04-03T05:45:42;99112.56;;;6.04;75.21
79400;BME280;68856;45.586;10.264;2023-04-03T05:48:08;99127.31;;;6.02;76.78
79400;BME280;68856;45.586;10.264;2023-04-03T05:50:34;99122.94;;;5.89;75.40
79400;BME280;68856;45.586;10.264;2023-04-03T05:53:02;99125.44;;;5.91;75.60
79400;BME280;68856;45.586;10.264;2023-04-03T05:55:29;99124.22;;;5.87;76.39
79400;BME280;68856;45.586;10.264;2023-04-03T05:57:55;99127.00;;;5.80;76.62
79400;BME280;68856;45.586;10.264;2023-04-03T06:00:22;99125.59;;;6.07;76.94
79400;BME280;68856;45.586;10.264;2023-04-03T06:02:48;99123.66;;;6.38;75.88
79400;BME280;68856;45.586;10.264;2023-04-03T06:05:15;99130.72;;;6.27;74.39
79400;BME280;68856;45.586;10.264;2023-04-03T06:07:41;99126.66;;;6.48;74.66
79400;BME280;68856;45.586;10.264;2023-04-03T06:10:08;99128.44;;;6.65;73.95
79400;BME280;68856;45.586;10.264;2023-04-03T06:12:34;99128.53;;;6.59;74.09
79400;BME280;68856;45.586;10.264;2023-04-03T06:15:01;99125.84;;;6.82;74.55
79400;BME280;68856;45.586;10.264;2023-04-03T06:17:28;99142.28;;;7.04;74.27
79400;BME280;68856;45.586;10.264;2023-04-03T06:19:55;99139.44;;;7.10;73.34
79400;BME280;68856;45.586;10.264;2023-04-03T06:22:24;99125.25;;;7.03;73.21
79400;BME280;68856;45.586;10.264;2023-04-03T06:24:51;99135.09;;;7.21;73.08
79400;BME280;68856;45.586;10.264;2023-04-03T06:27:17;99130.88;;;7.25;73.30
79400;BME280;68856;45.586;10.264;2023-04-03T06:29:44;99132.56;;;7.66;69.32
79400;BME280;68856;45.586;10.264;2023-04-03T06:32:11;99134.81;;;7.85;71.20
79400;BME280;68856;45.586;10.264;2023-04-03T06:34:37;99135.22;;;8.05;72.04
79400;BME280;68856;45.586;10.264;2023-04-03T06:37:04;99127.91;;;8.06;70.63
79400;BME280;68856;45.586;10.264;2023-04-03T06:39:30;99128.09;;;8.16;71.23
79400;BME280;68856;45.586;10.264;2023-04-03T06:41:56;99131.72;;;8.50;71.39
79400;BME280;68856;45.586;10.264;2023-04-03T06:44:23;99123.75;;;8.60;70.50
79400;BME280;68856;45.586;10.264;2023-04-03T06:46:49;99133.63;;;8.83;70.58
79400;BME280;68856;45.586;10.264;2023-04-03T06:49:15;99139.66;;;9.06;66.08
79400;BME280;68856;45.586;10.264;2023-04-03T06:51:42;99132.91;;;9.25;64.72
79400;BME280;68856;45.586;10.264;2023-04-03T06:54:08;99130.78;;;9.49;67.10
79400;BME280;68856;45.586;10.264;2023-04-03T06:56:35;99131.53;;;9.66;65.76
79400;BME280;68856;45.586;10.264;2023-04-03T06:59:01;99133.81;;;9.96;67.12
79400;BME280;68856;45.586;10.264;2023-04-03T07:01:29;99135.44;;;10.19;66.50
79400;BME280;68856;45.586;10.264;2023-04-03T07:03:56;99131.03;;;10.39;63.31
79400;BME280;68856;45.586;10.264;2023-04-03T07:06:23;99131.63;;;10.46;65.89
79400;BME280;68856;45.586;10.264;2023-04-03T07:08:52;99128.13;;;10.83;61.41
79400;BME280;68856;45.586;10.264;2023-04-03T07:11:18;99136.16;;;10.99;59.17
79400;BME280;68856;45.586;10.264;2023-04-03T07:13:46;99123.72;;;11.13;60.74
79400;BME280;68856;45.586;10.264;2023-04-03T07:16:12;99121.75;;;11.46;59.44
79400;BME280;68856;45.586;10.264;2023-04-03T07:18:39;99122.16;;;11.69;59.66
79400;BME280;68856;45.586;10.264;2023-04-03T07:21:05;99126.59;;;11.91;60.18
79400;BME280;68856;45.586;10.264;2023-04-03T07:23:32;99120.94;;;12.07;59.35
79400;BME280;68856;45.586;10.264;2023-04-03T07:25:58;99116.63;;;12.36;55.81
79400;BME280;68856;45.586;10.264;2023-04-03T07:28:25;99117.19;;;12.74;54.76
79400;BME280;68856;45.586;10.264;2023-04-03T07:31:02;99123.19;;;13.21;52.14
79400;BME280;68856;45.586;10.264;2023-04-03T07:33:30;99121.47;;;13.50;52.09
79400;BME280;68856;45.586;10.264;2023-04-03T07:35:57;99121.63;;;13.79;48.24
79400;BME280;68856;45.586;10.264;2023-04-03T07:38:23;99120.94;;;14.07;48.40
79400;BME280;68856;45.586;10.264;2023-04-03T07:40:50;99118.81;;;13.99;50.90
79400;BME280;68856;45.586;10.264;2023-04-03T07:43:19;99113.66;;;13.93;49.48
79400;BME280;68856;45.586;10.264;2023-04-03T07:45:46;99123.44;;;14.04;50.48
79400;BME280;68856;45.586;10.264;2023-04-03T07:48:16;99121.69;;;14.23;48.80
79400;BME280;68856;45.586;10.264;2023-04-03T07:50:43;99112.41;;;14.24;48.49
79400;BME280;68856;45.586;10.264;2023-04-03T07:53:10;99111.03;;;14.26;46.38
79400;BME280;68856;45.586;10.264;2023-04-03T07:55:36;99115.31;;;14.43;44.83
79400;BME280;68856;45.586;10.264;2023-04-03T07:58:10;99105.97;;;14.49;46.15
79400;BME280;68856;45.586;10.264;2023-04-03T08:00:37;99114.91;;;14.59;45.44
79400;BME280;68856;45.586;10.264;2023-04-03T08:03:04;99111.56;;;14.23;47.16
79400;BME280;68856;45.586;10.264;2023-04-03T08:05:31;99108.81;;;14.33;46.30
79400;BME280;68856;45.586;10.264;2023-04-03T08:07:57;99115.50;;;14.51;47.42
79400;BME280;68856;45.586;10.264;2023-04-03T08:10:24;99114.34;;;14.62;45.19
79400;BME280;68856;45.586;10.264;2023-04-03T08:12:50;99109.56;;;14.78;46.37
79400;BME280;68856;45.586;10.264;2023-04-03T08:15:17;99103.66;;;14.94;46.99
79400;BME280;68856;45.586;10.264;2023-04-03T08:17:43;99110.22;;;14.98;44.98
79400;BME280;68856;45.586;10.264;2023-04-03T08:20:10;99111.91;;;14.89;45.85
79400;BME280;68856;45.586;10.264;2023-04-03T08:22:37;99109.78;;;14.81;45.68
79400;BME280;68856;45.586;10.264;2023-04-03T08:25:03;99111.53;;;14.72;45.34
79400;BME280;68856;45.586;10.264;2023-04-03T08:27:29;99108.31;;;14.65;47.14
79400;BME280;68856;45.586;10.264;2023-04-03T08:29:56;99102.88;;;14.94;45.88
79400;BME280;68856;45.586;10.264;2023-04-03T08:32:23;99105.16;;;15.11;45.20
79400;BME280;68856;45.586;10.264;2023-04-03T08:34:50;99101.38;;;15.07;46.11
79400;BME280;68856;45.586;10.264;2023-04-03T08:37:16;99096.47;;;15.04;45.50
79400;BME280;68856;45.586;10.264;2023-04-03T08:39:43;99099.72;;;15.34;45.41
79400;BME280;68856;45.586;10.264;2023-04-03T08:42:21;99104.19;;;15.25;44.31
79400;BME280;68856;45.586;10.264;2023-04-03T08:50:23;99102.13;;;15.88;44.33
79400;BME280;68856;45.586;10.264;2023-04-03T08:52:56;99100.81;;;15.62;44.08
79400;BME280;68856;45.586;10.264;2023-04-03T08:55:29;99095.69;;;15.98;44.12
79400;BME280;68856;45.586;10.264;2023-04-03T08:58:07;99099.41;;;16.07;42.97
79400;BME280;68856;45.586;10.264;2023-04-03T09:04:01;99098.28;;;16.08;43.33
79400;BME280;68856;45.586;10.264;2023-04-03T09:06:32;99095.75;;;15.93;43.81
79400;BME280;68856;45.586;10.264;2023-04-03T09:11:52;99107.72;;;15.78;42.95
79400;BME280;68856;45.586;10.264;2023-04-03T09:14:33;99097.69;;;15.92;44.01
79400;BME280;68856;45.586;10.264;2023-04-03T09:17:21;99103.03;;;16.21;44.05
79400;BME280;68856;45.586;10.264;2023-04-03T09:20:15;99094.91;;;15.97;42.86
79400;BME280;68856;45.586;10.264;2023-04-03T09:22:43;99088.59;;;15.97;41.96
79400;BME280;68856;45.586;10.264;2023-04-03T09:25:21;99088.38;;;15.70;44.62
79400;BME280;68856;45.586;10.264;2023-04-03T09:27:48;99095.63;;;15.84;44.65
79400;BME280;68856;45.586;10.264;2023-04-03T09:30:18;99092.94;;;15.98;45.01
79400;BME280;68856;45.586;10.264;2023-04-03T09:32:47;99084.44;;;16.37;44.18
79400;BME280;68856;45.586;10.264;2023-04-03T09:35:19;99088.75;;;16.43;44.81
79400;BME280;68856;45.586;10.264;2023-04-03T09:37:49;99086.75;;;16.67;43.42
79400;BME280;68856;45.586;10.264;2023-04-03T09:40:29;99092.00;;;16.07;45.18
79400;BME280;68856;45.586;10.264;2023-04-03T09:43:01;99089.63;;;16.19;44.82
79400;BME280;68856;45.586;10.264;2023-04-03T09:45:35;99078.38;;;16.40;45.02
79400;BME280;68856;45.586;10.264;2023-04-03T09:51:00;99081.25;;;16.99;45.20
79400;BME280;68856;45.586;10.264;2023-04-03T09:53:33;99083.81;;;17.09;42.29
79400;BME280;68856;45.586;10.264;2023-04-03T09:56:03;99083.25;;;16.80;43.64
79400;BME280;68856;45.586;10.264;2023-04-03T10:01:01;99071.03;;;17.45;43.21
79400;BME280;68856;45.586;10.264;2023-04-03T10:03:31;99069.59;;;17.07;41.37
79400;BME280;68856;45.586;10.264;2023-04-03T10:05:58;99068.47;;;16.76;42.22
79400;BME280;68856;45.586;10.264;2023-04-03T10:08:30;99070.09;;;17.09;41.85
79400;BME280;68856;45.586;10.264;2023-04-03T10:11:11;99064.53;;;17.41;41.58
79400;BME280;68856;45.586;10.264;2023-04-03T10:13:51;99064.34;;;17.52;42.25
79400;BME280;68856;45.586;10.264;2023-04-03T10:16:38;99063.22;;;17.39;41.42
79400;BME280;68856;45.586;10.264;2023-04-03T10:22:07;99062.94;;;17.68;40.23
79400;BME280;68856;45.586;10.264;2023-04-03T10:38:58;99044.28;;;17.78;42.13
79400;BME280;68856;45.586;10.264;2023-04-03T10:41:47;99044.34;;;18.36;37.89
79400;BME280;68856;45.586;10.264;2023-04-03T10:47:20;99048.47;;;17.35;39.05
79400;BME280;68856;45.586;10.264;2023-04-03T10:50:27;99051.44;;;17.52;38.55
79400;BME280;68856;45.586;10.264;2023-04-03T11:01:35;99030.25;;;18.74;36.73
79400;BME280;68856;45.586;10.264;2023-04-03T11:04:04;99018.97;;;19.14;35.46
79400;BME280;68856;45.586;10.264;2023-04-03T11:07:00;99016.31;;;18.48;36.14
79400;BME280;68856;45.586;10.264;2023-04-03T11:09:35;99016.38;;;19.09;35.11
79400;BME280;68856;45.586;10.264;2023-04-03T11:14:49;99011.69;;;18.57;35.45
79400;BME280;68856;45.586;10.264;2023-04-03T11:20:10;98998.31;;;19.99;32.26
79400;BME280;68856;45.586;10.264;2023-04-03T11:22:41;99002.47;;;19.23;33.39
79400;BME280;68856;45.586;10.264;2023-04-03T11:25:18;98999.72;;;18.39;35.38
79400;BME280;68856;45.586;10.264;2023-04-03T11:28:00;99005.25;;;18.92;34.09
79400;BME280;68856;45.586;10.264;2023-04-03T11:36:27;98981.44;;;20.61;31.40
79400;BME280;68856;45.586;10.264;2023-04-03T11:38:55;98977.13;;;20.89;31.40
79400;BME280;68856;45.586;10.264;2023-04-03T11:41:31;98965.31;;;22.05;29.80
79400;BME280;68856;45.586;10.264;2023-04-03T12:00:48;98965.94;;;22.11;28.01
79400;BME280;68856;45.586;10.264;2023-04-03T12:24:32;98925.63;;;21.81;29.80
79400;BME280;68856;45.586;10.264;2023-04-03T12:35:28;98918.81;;;23.09;26.54
79400;BME280;68856;45.586;10.264;2023-04-03T12:46:47;98922.41;;;20.27;30.95
79400;BME280;68856;45.586;10.264;2023-04-03T12:51:56;98925.59;;;23.84;24.12
79400;BME280;68856;45.586;10.264;2023-04-03T12:54:39;98931.84;;;22.97;26.30
79400;BME280;68856;45.586;10.264;2023-04-03T12:57:18;98934.41;;;20.40;30.83
79400;BME280;68856;45.586;10.264;2023-04-03T12:59:45;98948.84;;;19.85;32.05
79400;BME280;68856;45.586;10.264;2023-04-03T13:02:28;98947.91;;;18.86;33.28
79400;BME280;68856;45.586;10.264;2023-04-03T13:04:58;98942.28;;;18.91;33.80
79400;BME280;68856;45.586;10.264;2023-04-03T13:07:34;98945.47;;;18.31;35.52
79400;BME280;68856;45.586;10.264;2023-04-03T13:12:45;98944.16;;;17.08;38.17
79400;BME280;68856;45.586;10.264;2023-04-03T13:15:24;98927.19;;;24.25;26.21
79400;BME280;68856;45.586;10.264;2023-04-03T13:17:53;98909.09;;;24.15;26.16
79400;BME280;68856;45.586;10.264;2023-04-03T13:20:26;98899.59;;;24.75;22.77
79400;BME280;68856;45.586;10.264;2023-04-03T13:23:06;98887.13;;;27.53;20.20
79400;BME280;68856;45.586;10.264;2023-04-03T13:25:36;98879.00;;;28.34;18.23
79400;BME280;68856;45.586;10.264;2023-04-03T13:28:09;98851.72;;;29.01;17.75
79400;BME280;68856;45.586;10.264;2023-04-03T13:30:38;98840.75;;;27.19;19.83
79400;BME280;68856;45.586;10.264;2023-04-03T13:33:19;98854.31;;;29.85;16.66
79400;BME280;68856;45.586;10.264;2023-04-03T13:35:46;98877.44;;;29.17;16.88
79400;BME280;68856;45.586;10.264;2023-04-03T13:41:21;98891.78;;;23.30;26.70
79400;BME280;68856;45.586;10.264;2023-04-03T13:43:47;98888.53;;;22.35;27.88
79400;BME280;68856;45.586;10.264;2023-04-03T13:48:41;98892.63;;;21.34;30.23
79400;BME280;68856;45.586;10.264;2023-04-03T13:53:52;98881.59;;;20.59;29.91
79400;BME280;68856;45.586;10.264;2023-04-03T13:56:36;98882.97;;;20.18;31.55
79400;BME280;68856;45.586;10.264;2023-04-03T14:01:46;98882.81;;;20.06;32.72
79400;BME280;68856;45.586;10.264;2023-04-03T14:04:24;98895.22;;;19.18;34.61
79400;BME280;68856;45.586;10.264;2023-04-03T14:06:51;98900.97;;;18.07;36.40
79400;BME280;68856;45.586;10.264;2023-04-03T14:09:19;98908.22;;;17.81;36.64
79400;BME280;68856;45.586;10.264;2023-04-03T14:11:53;98911.16;;;17.62;36.85
79400;BME280;68856;45.586;10.264;2023-04-03T14:14:23;98919.66;;;16.98;38.52
79400;BME280;68856;45.586;10.264;2023-04-03T14:16:55;98913.84;;;17.26;38.12
79400;BME280;68856;45.586;10.264;2023-04-03T14:19:27;98913.53;;;17.14;38.05
79400;BME280;68856;45.586;10.264;2023-04-03T14:21:55;98914.88;;;16.90;39.38
79400;BME280;68856;45.586;10.264;2023-04-03T14:24:23;98906.63;;;17.17;39.54
79400;BME280;68856;45.586;10.264;2023-04-03T14:26:54;98898.81;;;17.24;39.17
79400;BME280;68856;45.586;10.264;2023-04-03T14:29:21;98894.66;;;20.41;31.30
79400;BME280;68856;45.586;10.264;2023-04-03T14:31:49;98895.00;;;19.97;31.95
79400;BME280;68856;45.586;10.264;2023-04-03T14:34:16;98879.44;;;22.91;26.97
79400;BME280;68856;45.586;10.264;2023-04-03T14:36:44;98852.44;;;25.26;22.90
79400;BME280;68856;45.586;10.264;2023-04-03T14:39:17;98858.94;;;24.99;22.74
79400;BME280;68856;45.586;10.264;2023-04-03T14:41:44;98857.25;;;26.18;21.20
79400;BME280;68856;45.586;10.264;2023-04-03T14:44:11;98868.78;;;29.29;18.43
79400;BME280;68856;45.586;10.264;2023-04-03T14:46:41;98883.00;;;26.53;21.06
79400;BME280;68856;45.586;10.264;2023-04-03T14:49:18;98874.69;;;23.52;24.87
79400;BME280;68856;45.586;10.264;2023-04-03T14:51:44;98856.84;;;21.38;28.01
79400;BME280;68856;45.586;10.264;2023-04-03T14:54:17;98855.16;;;27.77;19.61
79400;BME280;68856;45.586;10.264;2023-04-03T14:56:45;98843.53;;;26.28;20.92
79400;BME280;68856;45.586;10.264;2023-04-03T14:59:13;98852.25;;;28.00;19.44
79400;BME280;68856;45.586;10.264;2023-04-03T15:01:40;98872.81;;;25.14;22.46
79400;BME280;68856;45.586;10.264;2023-04-03T15:04:18;98884.16;;;23.51;24.60
79400;BME280;68856;45.586;10.264;2023-04-03T15:06:46;98894.94;;;20.94;28.33
79400;BME280;68856;45.586;10.264;2023-04-03T15:09:25;98902.59;;;18.92;31.94
79400;BME280;68856;45.586;10.264;2023-04-03T15:11:53;98895.81;;;18.58;33.13
79400;BME280;68856;45.586;10.264;2023-04-03T15:14:20;98899.41;;;17.21;35.77
79400;BME280;68856;45.586;10.264;2023-04-03T15:16:47;98901.91;;;17.44;36.24
79400;BME280;68856;45.586;10.264;2023-04-03T15:19:15;98901.97;;;17.04;36.29